createdAt,value
2019-05-03T00:02:46.996Z,5.73
2019-05-03T00:07:56.118Z,3.27
2019-05-03T00:13:04.986Z,12.46
2019-05-03T00:18:13.922Z,11.50
2019-05-03T00:23:22.978Z,5.27
2019-05-03T00:28:32.164Z,4.83
2019-05-03T00:33:42.162Z,4.19
2019-05-03T00:38:48.588Z,4.26
2019-05-03T00:43:57.443Z,4.70
2019-05-03T00:49:06.361Z,4.46
2019-05-03T00:54:15.197Z,3.98
2019-05-03T00:59:24.117Z,5.31
2019-05-03T01:04:33.022Z,4.35
2019-05-03T01:09:42.452Z,4.04
2019-05-03T01:14:51.565Z,4.90
2019-05-03T01:19:59.066Z,4.15
2019-05-03T01:25:11.918Z,3.50
2019-05-03T01:30:08.200Z,4.28
2019-05-03T01:35:17.082Z,4.80
2019-05-03T01:40:26.017Z,4.25
2019-05-03T01:45:34.883Z,3.20
2019-05-03T01:50:44.092Z,4.40
2019-05-03T01:55:52.940Z,4.14
2019-05-03T02:01:02.816Z,4.46
2019-05-03T02:06:11.900Z,5.24
2019-05-03T02:11:18.798Z,4.14
2019-05-03T02:16:27.664Z,4.98
2019-05-03T02:21:36.634Z,3.77
2019-05-03T02:26:45.543Z,4.31
2019-05-03T02:31:54.474Z,4.45
2019-05-03T02:37:03.455Z,5.83
2019-05-03T02:42:12.383Z,3.39
2019-05-03T02:47:21.268Z,3.98
2019-05-03T02:52:30.166Z,3.90
2019-05-03T02:57:39.027Z,3.90
2019-05-03T03:02:47.953Z,4.74
2019-05-03T03:07:56.826Z,4.22
2019-05-03T03:13:06.028Z,3.64
2019-05-03T03:18:15.703Z,4.31
2019-05-03T03:23:25.644Z,3.87
2019-05-03T03:28:31.471Z,4.77
2019-05-03T03:33:40.722Z,4.69
2019-05-03T03:38:48.840Z,3.89
2019-05-03T03:43:57.761Z,4.24
2019-05-03T03:49:07.145Z,4.46
2019-05-03T03:54:15.567Z,3.72
2019-05-03T03:59:26.160Z,4.22
2019-05-03T04:04:31.943Z,5.83
2019-05-03T04:09:40.803Z,4.73
2019-05-03T04:14:49.735Z,4.67
2019-05-03T04:19:58.567Z,5.96
2019-05-03T04:25:07.475Z,8.07
2019-05-03T04:30:16.637Z,10.17
2019-05-03T04:35:26.540Z,10.95
2019-05-03T04:40:35.666Z,11.76
2019-05-03T04:45:41.670Z,11.71
2019-05-03T04:50:50.525Z,9.58
2019-05-03T04:55:59.636Z,10.58
2019-05-03T05:01:08.523Z,11.51
2019-05-03T05:06:17.806Z,11.32
2019-05-03T05:11:26.689Z,12.75
2019-05-03T05:16:35.758Z,11.98
2019-05-03T05:21:44.864Z,12.66
2019-05-03T05:26:54.906Z,13.75
2019-05-03T05:32:01.444Z,53.62
2019-05-03T05:37:10.417Z,19.54
2019-05-03T05:42:19.238Z,20.76
2019-05-03T05:47:28.174Z,21.17
2019-05-03T05:52:37.002Z,17.59
2019-05-03T05:57:46.034Z,20.34
2019-05-03T06:02:55.234Z,19.67
2019-05-03T06:08:04.793Z,19.26
2019-05-03T06:13:12.143Z,16.67
2019-05-03T06:18:21.103Z,19.00
2019-05-03T06:23:29.946Z,18.33
2019-05-03T06:28:41.581Z,18.31
2019-05-03T06:33:47.259Z,17.08
2019-05-03T06:38:56.231Z,16.19
2019-05-03T06:44:05.126Z,15.91
2019-05-03T06:49:15.177Z,17.22
2019-05-03T06:54:26.940Z,16.59
2019-05-03T06:59:30.906Z,16.39
2019-05-03T07:04:39.867Z,15.72
2019-05-03T07:09:48.812Z,15.47
2019-05-03T07:14:57.721Z,11.67
2019-05-03T07:20:07.322Z,11.75
2019-05-03T07:25:16.185Z,14.05
2019-05-03T07:30:25.181Z,12.34
2019-05-03T07:35:35.327Z,14.11
2019-05-03T07:40:44.467Z,21.09
2019-05-03T07:45:50.920Z,21.10
2019-05-03T07:50:59.850Z,17.76
2019-05-03T07:56:08.738Z,14.76
2019-05-03T08:01:17.728Z,15.75
2019-05-03T08:06:26.603Z,16.48
2019-05-03T08:11:35.596Z,15.27
2019-05-03T08:16:45.632Z,16.06
2019-05-03T08:21:56.409Z,17.84
2019-05-03T08:27:01.774Z,37.74
2019-05-03T08:32:10.777Z,17.04
2019-05-03T08:37:19.816Z,15.42
2019-05-03T08:42:31.806Z,17.20
2019-05-03T08:47:30.670Z,17.25
2019-05-03T08:52:39.701Z,37.35
2019-05-03T08:57:48.593Z,22.75
2019-05-03T09:02:57.535Z,20.28
2019-05-03T09:08:06.420Z,29.58
2019-05-03T09:13:15.426Z,23.04
2019-05-03T09:18:25.845Z,18.66
2019-05-03T09:23:32.852Z,20.54
2019-05-03T09:28:41.834Z,12.51
2019-05-03T09:33:51.087Z,14.66
2019-05-03T09:44:04.737Z,10.29
2019-05-03T09:49:15.856Z,8.46
2019-05-03T09:54:21.150Z,12.07
2019-05-03T20:42:45.405Z,4.62
2019-05-03T20:47:54.752Z,5.22
2019-05-03T20:53:02.250Z,5.31
2019-05-03T20:58:11.480Z,5.27
2019-05-03T21:03:19.078Z,4.99
2019-05-03T21:08:27.724Z,7.58
2019-05-03T21:13:41.968Z,4.99
2019-05-03T21:18:44.600Z,7.09
2019-05-03T21:23:55.274Z,7.13
2019-05-03T21:29:01.400Z,5.08
2019-05-03T21:34:10.162Z,6.79
2019-05-03T21:39:18.744Z,5.03
2019-05-03T21:44:27.445Z,6.51
2019-05-03T21:49:36.037Z,5.46
2019-05-03T21:54:45.053Z,11.53
2019-05-03T21:59:55.006Z,6.78
2019-05-03T22:05:01.630Z,4.75
2019-05-03T22:10:10.265Z,4.95
2019-05-03T22:15:18.948Z,3.50
2019-05-03T22:20:27.585Z,4.55
2019-05-03T22:25:36.281Z,3.79
2019-05-03T22:30:45.374Z,3.18
2019-05-03T22:36:05.976Z,3.46
2019-05-03T22:41:01.215Z,4.23
2019-05-03T22:46:09.988Z,2.88
2019-05-03T22:51:18.645Z,3.21
2019-05-03T22:56:27.370Z,3.79
2019-05-03T23:01:36.041Z,2.64
2019-05-03T23:06:47.098Z,4.00
2019-05-03T23:11:54.964Z,3.18
2019-05-03T23:17:01.079Z,3.85
2019-05-03T23:22:09.700Z,4.39
2019-05-03T23:27:18.358Z,3.19
2019-05-03T23:32:26.992Z,2.59
2019-05-03T23:37:35.762Z,3.04
2019-05-03T23:42:44.395Z,2.47
2019-05-03T23:47:53.032Z,4.02
2019-05-03T23:53:01.669Z,4.06
2019-05-03T23:58:10.356Z,2.87
